Flight Track Log - Related Links

Times and Time Zones

All times are in EDT time to prevent confusion due to time zone crossing. See the VNR189 flight status page for this flight to view local times or setup timezone preferences in your user account.


Time Position Orientation Groundspeed Altitude Reporting Facility
EDT Latitude Longitude Course Direction KTS MPH feet Rate Location/Type
Sun 02:17:17 PM 28.7833 -81.2667 180° South 141 162 600  Level Orlando TRACON
Sun 02:18:41 PM 28.7333 -81.2667 127° Southeast 206 237 2,000 1,083 Climbing Orlando TRACON
Sun 02:19:41 PM 28.7000 -81.2167 120° Southeast 218 251 3,200 1,750 Climbing Orlando TRACON
Sun 02:20:41 PM 28.6667 -81.1500 150° Southeast 218 251 5,500 2,243 Climbing Orlando TRACON
Sun 02:21:36 PM 28.6167 -81.1167 139° Southeast 213 245 7,500 2,243 Climbing Orlando TRACON
Sun 02:22:36 PM 28.5667 -81.0667 150° Southeast 220 253 9,800 2,200 Climbing Orlando TRACON
Sun 02:23:36 PM 28.5167 -81.0333 141° Southeast 236 272 11,900 1,392 Climbing Orlando TRACON
Sun 02:25:37 PM 28.3956 -80.9228 139° Southeast 270 311 14,000 696 Climbing Miami Center
Sun 02:26:37 PM 28.3306 -80.8592 149° Southeast 296 341 14,000  Level Miami Center
Sun 02:27:37 PM 28.2506 -80.8044 148° Southeast 325 374 14,000  Level Miami Center
Sun 02:28:37 PM 28.1750 -80.7500 148° Southeast 330 380 14,000  Level Miami Center
Sun 02:29:37 PM 28.0992 -80.6956 147° Southeast 325 374 14,000  Level Miami Center
Sun 02:30:37 PM 28.0317 -80.6461 146° Southeast 320 368 14,000 -100 Level Miami Center
Sun 02:31:37 PM 27.9600 -80.5919 148° Southeast 314 361 13,800 -750 Descending Miami Center
Sun 02:32:37 PM 27.8758 -80.5331 145° Southeast 319 367 12,500 -1,150 Descending Miami Center
Sun 02:33:37 PM 27.8042 -80.4767 149° Southeast 314 361 11,500 -1,000 Descending Miami Center
Sun 02:34:37 PM 27.7303 -80.4275 145° Southeast 314 361 10,500 -750 Descending Miami Center
Sun 02:35:37 PM 27.6708 -80.3811 149° Southeast 308 354 10,000 -250 Descending Miami Center
Sun 02:36:37 PM 27.6011 -80.3344 148° Southeast 298 343 10,000  Level Miami Center
Sun 02:37:37 PM 27.5211 -80.2781 148° Southeast 298 343 10,000 -250 Level Miami Center
Sun 02:38:37 PM 27.4511 -80.2292 147° Southeast 298 343 9,500 -1,200 Descending Miami Center
Sun 02:39:37 PM 27.3833 -80.1803 151° Southeast 298 343 7,600 -1,750 Descending Miami Center
Sun 02:40:37 PM 27.3194 -80.1411 171° South 290 334 6,000 -800 Descending Miami Center
Sun 02:41:37 PM 27.2467 -80.1275 156° South 269 310 6,000  Level Miami Center
Sun 02:42:37 PM 27.1683 -80.0878 158° South 274 315 6,000 -350 Level Miami Center
Sun 02:43:37 PM 27.1022 -80.0581 183° South 264 304 5,300 -800 Descending Miami Center
Sun 02:44:37 PM 27.0269 -80.0631 192° South 264 304 4,400 -650 Descending Miami Center
Sun 02:45:37 PM 26.9639 -80.0775 190° South 264 304 4,000 -200 Descending Miami Center
Sun 02:46:37 PM 26.8822 -80.0939 194° South 274 315 4,000 -100 Level Miami Center
Sun 02:47:37 PM 26.8128 -80.1131 184° South 269 310 3,800 -200 Descending Miami Center

Login

Don't have an account? Register now (free) for customized features, flight alerts, and more!